createdAt,value
2019-04-20T00:01:26.288Z,99676.13
2019-04-20T00:03:51.898Z,99676.84
2019-04-20T00:06:21.477Z,99672.73
2019-04-20T00:08:57.830Z,99676.12
2019-04-20T00:11:31.028Z,99666.92
2019-04-20T00:14:02.899Z,99666.53
2019-04-20T00:16:25.072Z,99666.83
2019-04-20T00:18:58.538Z,99664.22
2019-04-20T00:22:01.896Z,99672.74
2019-04-20T00:24:34.111Z,99666.25
2019-04-20T00:27:19.274Z,99674.52
2019-04-20T00:29:50.866Z,99672.16
2019-04-20T00:32:16.665Z,99670.30
2019-04-20T00:34:39.007Z,99669.91
2019-04-20T00:37:07.023Z,99667.47
2019-04-20T00:39:36.568Z,99668.33
2019-04-20T00:42:09.721Z,99668.95
2019-04-20T00:44:39.551Z,99660.05
2019-04-20T00:47:20.076Z,99663.23
2019-04-20T00:49:52.281Z,99666.77
2019-04-20T00:52:27.469Z,99661.92
2019-04-20T00:54:41.664Z,99659.41
2019-04-20T00:57:20.425Z,99658.74
2019-04-20T01:00:04.703Z,99655.63
2019-04-20T01:02:26.194Z,99655.36
2019-04-20T01:05:04.320Z,99651.94
2019-04-20T01:07:30.430Z,99656.81
2019-04-20T01:10:13.160Z,99659.81
2019-04-20T01:12:44.457Z,99657.36
2019-04-20T01:15:25.565Z,99661.50
2019-04-20T01:17:45.632Z,99665.64
2019-04-20T01:20:15.119Z,99669.70
2019-04-20T01:22:52.274Z,99665.55
2019-04-20T01:25:23.025Z,99672.29
2019-04-20T01:28:18.318Z,99668.33
2019-04-20T01:30:28.403Z,99673.16
2019-04-20T01:33:03.753Z,99673.23
2019-04-20T01:35:39.368Z,99675.55
2019-04-20T01:38:12.406Z,99672.95
2019-04-20T01:40:25.459Z,99677.91
2019-04-20T01:42:55.348Z,99674.92
2019-04-20T01:45:30.772Z,99677.94
2019-04-20T01:47:59.185Z,99677.80
2019-04-20T01:50:30.067Z,99670.22
2019-04-20T01:53:11.516Z,99673.60
2019-04-20T01:55:45.668Z,99676.27
2019-04-20T02:01:00.831Z,99675.19
2019-04-20T02:03:52.483Z,99672.20
2019-04-20T02:06:23.118Z,99682.36
2019-04-20T02:08:58.299Z,99675.59
2019-04-20T02:11:30.479Z,99682.81
2019-04-20T02:13:58.591Z,99683.30
2019-04-20T02:16:33.662Z,99680.28
2019-04-20T02:19:09.051Z,99676.68
2019-04-20T02:21:42.396Z,99675.38
2019-04-20T02:24:02.681Z,99680.14
2019-04-20T02:26:30.237Z,99679.28
2019-04-20T02:29:24.541Z,99682.09
2019-04-20T02:32:10.370Z,99683.03
2019-04-20T02:34:39.793Z,99678.25
2019-04-20T02:37:39.536Z,99680.33
2019-04-20T02:42:28.116Z,99691.80
2019-04-20T02:47:22.567Z,99687.28
2019-04-20T02:49:53.572Z,99690.39
2019-04-20T02:52:31.451Z,99684.53
2019-04-20T02:55:02.245Z,99682.59
2019-04-20T03:02:16.993Z,99669.77
2019-04-20T03:04:38.228Z,99678.87
2019-04-20T03:07:11.880Z,99678.33
2019-04-20T03:09:44.377Z,99684.23
2019-04-20T03:12:23.683Z,99677.39
2019-04-20T03:14:50.152Z,99679.23
2019-04-20T03:17:29.712Z,99678.38
2019-04-20T03:19:47.815Z,99674.31
2019-04-20T03:22:34.973Z,99674.48
2019-04-20T03:24:59.341Z,99672.41
2019-04-20T03:27:41.215Z,99673.64
2019-04-20T03:33:41.309Z,99668.23
2019-04-20T03:35:43.157Z,99669.03
2019-04-20T03:38:07.473Z,99671.22
2019-04-20T03:40:34.688Z,99667.84
2019-04-20T03:42:48.685Z,99669.69
2019-04-20T03:45:21.106Z,99671.16
2019-04-20T03:48:00.789Z,99670.23
2019-04-20T03:50:41.272Z,99678.59
2019-04-20T03:53:19.895Z,99679.14
2019-04-20T03:56:09.692Z,99674.45
2019-04-20T03:58:45.989Z,99677.81
2019-04-20T04:02:09.386Z,99672.75
2019-04-20T04:04:27.638Z,99679.20
2019-04-20T04:06:45.041Z,99681.19
2019-04-20T04:09:21.451Z,99682.07
2019-04-20T04:11:56.014Z,99680.33
2019-04-20T04:14:09.509Z,99682.86
2019-04-20T04:16:45.765Z,99683.36
2019-04-20T04:19:18.022Z,99674.59
2019-04-20T04:22:00.821Z,99677.80
2019-04-20T04:24:23.484Z,99683.86
2019-04-20T04:26:56.029Z,99683.48
2019-04-20T04:29:39.627Z,99679.41
2019-04-20T04:32:12.293Z,99679.81
2019-04-20T04:34:35.094Z,99684.63
2019-04-20T04:37:03.261Z,99681.41
2019-04-20T04:39:41.812Z,99688.80
2019-04-20T04:42:19.112Z,99689.71
2019-04-20T04:44:35.734Z,99692.37
2019-04-20T04:46:56.772Z,99686.78
2019-04-20T04:49:29.358Z,99687.03
2019-04-20T04:52:02.249Z,99693.72
2019-04-20T04:54:34.021Z,99691.31
2019-04-20T04:56:54.865Z,99697.92
2019-04-20T04:59:23.993Z,99695.72
2019-04-20T05:01:55.418Z,99701.63
2019-04-20T05:05:04.923Z,99708.85
2019-04-20T05:07:40.059Z,99713.14
2019-04-20T05:09:57.052Z,99709.22
2019-04-20T05:12:29.810Z,99710.16
2019-04-20T05:15:06.092Z,99712.64
2019-04-20T05:17:53.266Z,99713.98
2019-04-20T05:20:17.411Z,99712.58
2019-04-20T05:23:20.727Z,99711.59
2019-04-20T05:26:10.067Z,99709.57
2019-04-20T05:28:27.528Z,99711.22
2019-04-20T05:30:52.024Z,99709.63
2019-04-20T05:33:27.535Z,99711.55
2019-04-20T05:36:09.640Z,99712.55
2019-04-20T05:38:42.017Z,99708.55
2019-04-20T05:41:09.916Z,99712.95
2019-04-20T05:43:54.713Z,99714.69
2019-04-20T05:46:35.353Z,99714.20
2019-04-20T05:49:03.206Z,99717.24
2019-04-20T05:51:41.054Z,99713.27
2019-04-20T05:54:09.761Z,99716.20
2019-04-20T05:56:43.863Z,99719.21
2019-04-20T05:59:09.810Z,99727.45
2019-04-20T06:01:39.694Z,99724.75
2019-04-20T06:04:10.534Z,99716.43
2019-04-20T06:06:44.756Z,99723.55
2019-04-20T06:09:15.630Z,99712.91
2019-04-20T06:12:01.660Z,99719.00
2019-04-20T06:14:15.462Z,99716.35
2019-04-20T06:17:13.735Z,99707.17
2019-04-20T06:19:54.628Z,99705.95
2019-04-20T06:22:29.214Z,99706.42
2019-04-20T06:25:26.087Z,99702.55
2019-04-20T06:27:39.975Z,99712.69
2019-04-20T06:30:08.582Z,99720.84
2019-04-20T06:33:24.523Z,99716.47
2019-04-20T06:38:36.498Z,99724.61
2019-04-20T06:40:59.435Z,99726.20
2019-04-20T06:43:25.465Z,99729.80
2019-04-20T06:46:01.990Z,99727.42
2019-04-20T06:48:29.072Z,99722.48
2019-04-20T06:50:49.488Z,99728.05
2019-04-20T06:53:37.889Z,99734.61
2019-04-20T06:56:09.600Z,99727.04
2019-04-20T06:58:43.526Z,99728.45
2019-04-20T07:01:11.058Z,99734.03
2019-04-20T07:03:54.273Z,99726.64
2019-04-20T07:06:30.787Z,99729.25
2019-04-20T07:11:18.499Z,99730.16
2019-04-20T07:13:35.669Z,99730.69
2019-04-20T07:16:24.776Z,99725.72
2019-04-20T07:19:12.833Z,99730.77
2019-04-20T07:24:48.898Z,99728.86
2019-04-20T07:27:13.558Z,99728.31
2019-04-20T07:29:47.503Z,99726.72
2019-04-20T07:32:11.282Z,99729.47
2019-04-20T07:34:47.695Z,99734.23
2019-04-20T07:40:13.513Z,99721.23
2019-04-20T07:42:43.818Z,99717.19
2019-04-20T07:45:17.000Z,99719.30
2019-04-20T07:50:07.635Z,99714.38
2019-04-20T07:52:36.350Z,99717.81
2019-04-20T07:57:42.909Z,99708.95
2019-04-20T08:00:21.456Z,99705.91
2019-04-20T08:03:12.895Z,99712.06
2019-04-20T08:05:46.617Z,99705.98
2019-04-20T08:08:22.963Z,99704.88
2019-04-20T08:10:54.055Z,99702.79
2019-04-20T08:16:00.663Z,99700.67
2019-04-20T08:18:31.064Z,99689.73
2019-04-20T08:21:03.852Z,99698.07
2019-04-20T08:23:33.524Z,99696.87
2019-04-20T08:25:52.256Z,99705.19
2019-04-20T08:28:33.441Z,99702.80
2019-04-20T08:31:29.733Z,99701.43
2019-04-20T08:34:20.225Z,99701.52
2019-04-20T08:36:47.925Z,99698.80
2019-04-20T08:39:32.407Z,99702.38
2019-04-20T08:41:48.767Z,99694.34
2019-04-20T08:44:33.582Z,99695.88
2019-04-20T08:46:53.602Z,99690.31
2019-04-20T08:49:26.428Z,99689.30
2019-04-20T08:51:55.032Z,99694.31
2019-04-20T08:54:16.447Z,99690.55
2019-04-20T08:56:40.870Z,99690.23
2019-04-20T08:59:02.079Z,99682.92
2019-04-20T09:01:35.260Z,99686.01
2019-04-20T09:04:09.794Z,99682.92
2019-04-20T09:06:46.076Z,99683.77
2019-04-20T09:09:31.830Z,99680.00
2019-04-20T09:11:54.327Z,99679.30
2019-04-20T09:14:28.220Z,99679.38
2019-04-20T09:17:27.138Z,99681.81
2019-04-20T09:20:01.387Z,99679.97
2019-04-20T09:22:49.473Z,99677.73
2019-04-20T09:25:57.674Z,99671.86
2019-04-20T09:28:14.303Z,99670.44
2019-04-20T09:30:45.529Z,99664.50
2019-04-20T09:33:43.665Z,99663.55
2019-04-20T09:36:16.625Z,99668.92
2019-04-20T09:39:00.112Z,99662.44
2019-04-20T09:41:47.315Z,99662.03
2019-04-20T09:43:54.095Z,99655.80
2019-04-20T09:46:24.285Z,99650.84
2019-04-20T09:48:57.911Z,99652.89
2019-04-20T09:51:43.717Z,99652.11
2019-04-20T09:54:10.673Z,99653.14
2019-04-20T09:56:39.492Z,99654.45
2019-04-20T09:59:16.599Z,99650.98
2019-04-20T10:01:38.143Z,99650.97
2019-04-20T10:04:01.372Z,99646.45
2019-04-20T10:06:34.569Z,99636.81
2019-04-20T10:09:03.792Z,99630.75
2019-04-20T10:11:32.488Z,99631.47
2019-04-20T10:14:02.221Z,99628.08
2019-04-20T10:16:31.648Z,99631.55
2019-04-20T10:19:00.894Z,99624.13
2019-04-20T10:21:30.365Z,99615.52
2019-04-20T10:24:00.677Z,99619.14
2019-04-20T10:26:30.255Z,99619.69
2019-04-20T10:28:59.990Z,99614.88
2019-04-20T10:31:29.117Z,99610.67
2019-04-20T10:33:59.734Z,99609.66
2019-04-20T10:36:51.437Z,99615.03
2019-04-20T10:39:22.538Z,99611.49
2019-04-20T10:41:56.280Z,99600.80
2019-04-20T10:44:25.024Z,99600.80
2019-04-20T10:46:54.313Z,99596.23
2019-04-20T10:49:24.920Z,99592.68
2019-04-20T10:51:54.161Z,99592.68
2019-04-20T10:54:24.788Z,99592.55
2019-04-20T10:56:57.120Z,99587.97
2019-04-20T10:59:27.718Z,99581.91
2019-04-20T11:01:58.119Z,99583.52
2019-04-20T11:04:28.538Z,99577.10
2019-04-20T11:06:58.662Z,99575.43
2019-04-20T11:09:29.012Z,99575.43
2019-04-20T11:11:58.835Z,99579.72
2019-04-20T11:14:31.965Z,99579.72
2019-04-20T11:17:00.243Z,99579.19
2019-04-20T11:19:29.497Z,99572.13
2019-04-20T11:21:58.656Z,99567.67
2019-04-20T11:24:28.128Z,99563.20
2019-04-20T11:26:58.315Z,99563.20
2019-04-20T11:29:28.476Z,99565.56
2019-04-20T11:31:59.164Z,99557.39
2019-04-20T11:34:33.089Z,99560.33
2019-04-20T11:36:59.565Z,99546.83
2019-04-20T11:39:29.637Z,99551.34
2019-04-20T11:41:59.959Z,99552.41
2019-04-20T11:44:31.451Z,99547.49
2019-04-20T11:47:02.899Z,99547.49
2019-04-20T11:49:33.282Z,99545.31
2019-04-20T11:52:04.061Z,99542.83
2019-04-20T11:54:34.522Z,99539.95
2019-04-20T11:57:04.082Z,99539.95
2019-04-20T11:59:34.974Z,99536.95
2019-04-20T12:02:30.108Z,99529.23
2019-04-20T12:05:16.706Z,99526.05
2019-04-20T12:07:40.587Z,99520.33
2019-04-20T12:10:15.799Z,99517.52
2019-04-20T12:12:47.205Z,99517.52
2019-04-20T12:15:14.712Z,99513.65
2019-04-20T12:17:44.067Z,99517.91
2019-04-20T12:20:14.617Z,99507.23
2019-04-20T12:22:44.284Z,99513.20
2019-04-20T12:25:14.224Z,99513.39
2019-04-20T12:27:50.762Z,99506.47
2019-04-20T12:30:15.514Z,99512.52
2019-04-20T12:32:50.468Z,99500.98
2019-04-20T12:35:16.591Z,99501.31
2019-04-20T12:37:47.233Z,99491.52
2019-04-20T12:40:17.437Z,99491.52
2019-04-20T12:42:46.705Z,99507.31
2019-04-20T12:45:17.686Z,99505.44
2019-04-20T12:47:49.751Z,99497.81
2019-04-20T12:50:19.332Z,99496.14
2019-04-20T12:52:48.523Z,99496.38
2019-04-20T12:55:18.871Z,99494.39
2019-04-20T12:57:48.082Z,99492.25
2019-04-20T13:00:19.471Z,99482.54
2019-04-20T13:02:49.968Z,99491.21
2019-04-20T13:05:19.643Z,99482.40
2019-04-20T13:07:55.881Z,99485.89
2019-04-20T13:10:21.436Z,99473.86
2019-04-20T13:13:26.109Z,99479.31
2019-04-20T13:16:14.415Z,99475.03
2019-04-20T13:18:55.587Z,99477.23
2019-04-20T13:21:25.093Z,99471.77
2019-04-20T13:23:55.312Z,99466.16
2019-04-20T13:26:26.866Z,99465.30
2019-04-20T13:28:57.119Z,99461.59
2019-04-20T13:31:26.940Z,99468.66
2019-04-20T13:33:57.160Z,99451.43
2019-04-20T13:36:26.495Z,99454.64
2019-04-20T13:38:56.357Z,99450.33
2019-04-20T13:41:25.594Z,99449.56
2019-04-20T13:43:57.806Z,99443.95
2019-04-20T13:46:27.177Z,99447.45
2019-04-20T13:48:57.314Z,99445.13
2019-04-20T13:51:26.655Z,99445.35
2019-04-20T13:53:56.954Z,99446.57
2019-04-20T13:56:28.034Z,99438.84
2019-04-20T13:59:05.570Z,99440.75
2019-04-20T14:01:50.746Z,99430.59
2019-04-20T14:04:23.103Z,99427.00
2019-04-20T14:06:53.337Z,99422.91
2019-04-20T14:09:23.501Z,99419.30
2019-04-20T14:11:53.638Z,99413.41
2019-04-20T14:14:23.428Z,99412.88
2019-04-20T14:16:52.987Z,99414.22
2019-04-20T14:19:23.207Z,99407.84
2019-04-20T14:21:52.488Z,99406.36
2019-04-20T14:24:21.632Z,99399.74
2019-04-20T14:26:50.871Z,99402.02
2019-04-20T14:29:20.889Z,99402.12
2019-04-20T14:31:50.192Z,99398.83
2019-04-20T14:34:20.606Z,99396.84
2019-04-20T14:36:50.905Z,99396.85
2019-04-20T14:39:20.487Z,99389.62
2019-04-20T14:41:49.668Z,99392.39
2019-04-20T14:44:19.586Z,99381.45
2019-04-20T14:46:49.738Z,99384.88
2019-04-20T14:49:18.998Z,99384.48
2019-04-20T14:51:48.220Z,99378.57
2019-04-20T14:54:17.697Z,99378.16
2019-04-20T14:56:47.563Z,99373.59
2019-04-20T14:59:38.174Z,99372.52
2019-04-20T15:02:10.553Z,99368.93
2019-04-20T15:04:41.267Z,99375.03
2019-04-20T15:07:10.936Z,99373.36
2019-04-20T15:09:42.834Z,99364.90
2019-04-20T15:12:13.036Z,99363.15
2019-04-20T15:14:42.766Z,99361.20
2019-04-20T15:17:15.669Z,99358.25
2019-04-20T15:20:07.554Z,99346.15
2019-04-20T15:22:47.576Z,99358.78
2019-04-20T15:25:17.821Z,99350.81
2019-04-20T15:27:48.197Z,99351.34
2019-04-20T15:30:18.340Z,99354.44
2019-04-20T15:32:47.638Z,99353.37
2019-04-20T15:35:19.179Z,99344.13
2019-04-20T15:37:49.075Z,99341.06
2019-04-20T15:40:19.347Z,99333.77
2019-04-20T15:42:57.947Z,99333.23
2019-04-20T15:45:21.236Z,99330.11
2019-04-20T15:47:50.371Z,99335.19
2019-04-20T15:50:20.238Z,99331.65
2019-04-20T15:52:52.800Z,99328.17
2019-04-20T15:55:27.515Z,99329.92
2019-04-20T15:57:53.484Z,99329.48
2019-04-20T16:00:24.562Z,99326.67
2019-04-20T16:03:03.439Z,99321.30
2019-04-20T16:05:51.365Z,99318.47
2019-04-20T16:08:25.891Z,99316.63
2019-04-20T16:10:57.107Z,99311.69
2019-04-20T16:13:35.092Z,99317.83
2019-04-20T16:15:58.089Z,99301.84
2019-04-20T16:18:27.390Z,99314.67
2019-04-20T16:21:05.388Z,99307.22
2019-04-20T16:23:28.318Z,99307.22
2019-04-20T16:26:07.805Z,99309.56
2019-04-20T16:28:37.541Z,99299.47
2019-04-20T16:31:09.971Z,99303.83
2019-04-20T16:33:38.793Z,99301.23
2019-04-20T16:36:08.365Z,99300.77
2019-04-20T16:38:37.689Z,99298.52
2019-04-20T16:41:06.864Z,99301.06
2019-04-20T16:43:41.072Z,99296.55
2019-04-20T16:46:06.904Z,99299.24
2019-04-20T16:48:36.049Z,99285.77
2019-04-20T16:51:05.313Z,99285.77
2019-04-20T16:53:34.996Z,99292.67
2019-04-20T16:56:04.169Z,99277.53
2019-04-20T16:58:33.512Z,99285.58
2019-04-20T17:01:03.494Z,99286.09
2019-04-20T17:03:44.353Z,99286.09
2019-04-20T17:06:04.617Z,99282.56
2019-04-20T17:08:33.876Z,99282.56
2019-04-20T17:11:03.509Z,99277.27
2019-04-20T17:13:40.527Z,99280.94
2019-04-20T17:16:04.263Z,99280.94
2019-04-20T17:18:34.029Z,99282.95
2019-04-20T17:21:08.616Z,99280.91
2019-04-20T17:23:35.388Z,99277.99
2019-04-20T17:26:06.067Z,99286.38
2019-04-20T17:28:55.426Z,99286.38
2019-04-20T17:31:39.897Z,99279.72
2019-04-20T17:34:31.566Z,99284.60
2019-04-20T17:36:46.539Z,99284.17
2019-04-20T17:39:28.811Z,99284.73
2019-04-20T17:42:03.203Z,99284.73
2019-04-20T17:44:34.392Z,99280.27
2019-04-20T17:47:02.798Z,99280.27
2019-04-20T17:49:36.881Z,99281.73
2019-04-20T17:52:21.831Z,99281.55
2019-04-20T17:54:45.204Z,99278.16
2019-04-20T17:57:15.406Z,99291.84
2019-04-20T17:59:53.210Z,99291.84
2019-04-20T18:02:59.017Z,99292.91
2019-04-20T18:05:58.366Z,99292.91
2019-04-20T18:08:26.349Z,99292.97
2019-04-20T18:10:50.630Z,99287.67
2019-04-20T18:13:17.715Z,99295.86
2019-04-20T18:15:58.900Z,99297.50
2019-04-20T18:18:44.044Z,99297.67
2019-04-20T18:21:21.165Z,99294.19
2019-04-20T18:23:52.090Z,99291.02
2019-04-20T18:26:45.328Z,99299.02
2019-04-20T18:29:10.871Z,99294.34
2019-04-20T18:31:55.954Z,99291.68
2019-04-20T18:34:53.211Z,99298.14
2019-04-20T18:37:23.387Z,99299.83
2019-04-20T18:40:01.082Z,99302.14
2019-04-20T18:42:29.704Z,99303.97
2019-04-20T18:45:14.242Z,99302.94
2019-04-20T18:47:45.567Z,99306.52
2019-04-20T18:50:07.735Z,99302.30
2019-04-20T18:52:27.858Z,99309.42
2019-04-20T18:54:57.542Z,99307.98
2019-04-20T18:57:29.680Z,99308.90
2019-04-20T18:59:59.141Z,99315.85
2019-04-20T19:02:33.432Z,99314.33
2019-04-20T19:05:01.625Z,99324.88
2019-04-20T19:07:34.864Z,99323.80
2019-04-20T19:10:11.226Z,99330.02
2019-04-20T19:12:43.983Z,99330.02
2019-04-20T19:15:33.286Z,99324.81
2019-04-20T19:18:06.986Z,99323.28
2019-04-20T19:20:33.428Z,99328.91
2019-04-20T19:23:04.014Z,99333.27
2019-04-20T19:25:37.444Z,99325.80
2019-04-20T19:28:05.701Z,99331.64
2019-04-20T19:30:45.855Z,99330.95
2019-04-20T19:33:24.410Z,99330.02
2019-04-20T19:35:50.117Z,99326.92
2019-04-20T19:38:15.857Z,99330.66
2019-04-20T19:40:53.878Z,99326.34
2019-04-20T19:43:19.995Z,99327.98
2019-04-20T19:46:25.536Z,99329.86
2019-04-20T19:48:28.246Z,99332.41
2019-04-20T19:51:11.621Z,99330.83
2019-04-20T19:53:36.696Z,99327.25
2019-04-20T19:55:59.049Z,99336.45
2019-04-20T19:58:31.508Z,99328.22
2019-04-20T20:00:53.561Z,99326.41
2019-04-20T20:03:22.078Z,99324.25
2019-04-20T20:05:53.787Z,99327.16
2019-04-20T20:08:25.922Z,99327.66
2019-04-20T20:10:56.365Z,99324.56
2019-04-20T20:13:31.938Z,99329.59
2019-04-20T20:16:04.495Z,99333.83
2019-04-20T20:18:39.235Z,99327.44
2019-04-20T20:21:12.657Z,99324.52
2019-04-20T20:23:29.969Z,99332.22
2019-04-20T20:26:02.309Z,99326.00
2019-04-20T20:28:40.130Z,99330.05
2019-04-20T20:31:16.292Z,99337.55
2019-04-20T20:33:46.740Z,99332.24
2019-04-20T20:36:09.531Z,99334.55
2019-04-20T20:38:42.568Z,99339.83
2019-04-20T20:41:17.390Z,99339.50
2019-04-20T20:43:51.079Z,99351.67
2019-04-20T20:46:19.858Z,99351.80
2019-04-20T20:49:04.941Z,99356.66
2019-04-20T20:51:35.533Z,99357.66
2019-04-20T20:53:50.916Z,99352.86
2019-04-20T20:56:21.528Z,99356.00
2019-04-20T20:58:55.012Z,99358.39
2019-04-20T21:01:20.115Z,99355.56
2019-04-20T21:03:48.654Z,99356.55
2019-04-20T21:06:18.853Z,99356.91
2019-04-20T21:08:53.734Z,99350.98
2019-04-20T21:11:23.537Z,99343.08
2019-04-20T21:13:51.844Z,99356.73
2019-04-20T21:16:27.658Z,99346.02
2019-04-20T21:19:12.076Z,99347.07
2019-04-20T21:21:38.559Z,99348.66
2019-04-20T21:24:03.892Z,99346.14
2019-04-20T21:26:35.656Z,99349.30
2019-04-20T21:29:01.870Z,99343.48
2019-04-20T21:31:32.601Z,99339.65
2019-04-20T21:34:07.747Z,99339.59
2019-04-20T21:36:34.582Z,99339.36
2019-04-20T21:39:08.750Z,99335.41
2019-04-20T21:41:40.673Z,99338.30
2019-04-20T21:44:15.602Z,99341.55
2019-04-20T21:46:44.217Z,99339.88
2019-04-20T21:49:28.430Z,99335.83
2019-04-20T21:51:49.729Z,99328.98
2019-04-20T21:54:14.153Z,99323.59
2019-04-20T21:56:49.911Z,99328.52
2019-04-20T22:02:56.156Z,99320.70
2019-04-20T22:05:19.039Z,99327.14
2019-04-20T22:07:48.477Z,99325.69
2019-04-20T22:10:21.816Z,99318.84
2019-04-20T22:12:53.871Z,99318.57
2019-04-20T22:15:27.210Z,99316.52
2019-04-20T22:17:50.729Z,99315.45
2019-04-20T22:20:28.589Z,99313.30
2019-04-20T22:23:02.651Z,99315.94
2019-04-20T22:25:39.250Z,99317.76
2019-04-20T22:27:55.652Z,99314.25
2019-04-20T22:30:24.583Z,99317.69
2019-04-20T22:32:56.939Z,99318.34
2019-04-20T22:35:26.524Z,99318.78
2019-04-20T22:38:08.270Z,99321.19
2019-04-20T22:40:36.411Z,99318.64
2019-04-20T22:43:06.382Z,99314.63
2019-04-20T22:45:41.171Z,99318.22
2019-04-20T22:48:10.467Z,99315.11
2019-04-20T22:50:51.322Z,99311.27
2019-04-20T22:53:24.999Z,99314.90
2019-04-20T22:56:02.789Z,99309.61
2019-04-20T22:58:26.040Z,99316.64
2019-04-20T23:00:50.126Z,99311.11
2019-04-20T23:03:12.743Z,99309.12
2019-04-20T23:05:42.761Z,99303.81
2019-04-20T23:08:12.953Z,99301.65
2019-04-20T23:10:45.994Z,99308.81
2019-04-20T23:13:13.768Z,99301.52
2019-04-20T23:15:49.227Z,99296.72
2019-04-20T23:18:14.066Z,99297.00
2019-04-20T23:20:44.115Z,99298.67
2019-04-20T23:23:18.170Z,99294.63
2019-04-20T23:25:45.134Z,99292.70
2019-04-20T23:28:18.040Z,99293.42
2019-04-20T23:30:47.339Z,99294.84
2019-04-20T23:33:17.764Z,99292.68
2019-04-20T23:35:52.979Z,99293.42
2019-04-20T23:38:22.536Z,99288.85
2019-04-20T23:40:50.032Z,99290.34
2019-04-20T23:43:28.056Z,99290.55
2019-04-20T23:46:22.351Z,99284.58
2019-04-20T23:49:15.149Z,99286.45
2019-04-20T23:51:53.798Z,99291.96
2019-04-20T23:54:15.802Z,99290.22
2019-04-20T23:56:39.511Z,99294.77
2019-04-20T23:59:09.068Z,99286.87
